createdAt,value
2018-09-14T00:00:00.840Z,90.20
2018-09-14T00:02:29.268Z,90.32
2018-09-14T00:04:57.810Z,89.80
2018-09-14T00:07:26.281Z,90.10
2018-09-14T00:09:54.782Z,89.70
2018-09-14T00:12:23.393Z,89.63
2018-09-14T00:14:51.827Z,89.65
2018-09-14T00:17:20.254Z,89.81
2018-09-14T00:19:48.689Z,90.12
2018-09-14T00:22:17.152Z,90.28
2018-09-14T00:24:45.700Z,90.72
2018-09-14T00:27:14.159Z,90.20
2018-09-14T00:29:42.654Z,89.78
2018-09-14T00:32:11.185Z,89.40
2018-09-14T00:34:39.681Z,89.68
2018-09-14T00:37:08.301Z,90.22
2018-09-14T00:39:36.764Z,90.00
2018-09-14T00:42:05.212Z,89.87
2018-09-14T00:44:33.715Z,90.10
2018-09-14T00:47:02.180Z,90.22
2018-09-14T00:49:30.676Z,90.49
2018-09-14T00:51:59.163Z,90.63
2018-09-14T00:54:27.992Z,91.00
2018-09-14T00:56:56.511Z,91.26
2018-09-14T00:59:25.074Z,91.32
2018-09-14T01:01:53.589Z,90.39
2018-09-14T01:04:22.067Z,90.24
2018-09-14T01:06:50.848Z,90.62
2018-09-14T01:09:25.264Z,91.37
2018-09-14T01:12:01.668Z,90.84
2018-09-14T01:14:30.145Z,90.82
2018-09-14T01:17:02.845Z,90.40
2018-09-14T01:19:31.313Z,91.25
2018-09-14T01:21:59.792Z,90.64
2018-09-14T01:24:29.332Z,90.77
2018-09-14T01:26:57.901Z,91.49
2018-09-14T01:29:26.349Z,91.52
2018-09-14T01:31:55.005Z,91.27
2018-09-14T01:34:23.517Z,91.09
2018-09-14T01:36:52.009Z,90.89
2018-09-14T01:39:21.623Z,90.75
2018-09-14T01:41:50.089Z,90.71
2018-09-14T01:44:35.577Z,90.92
2018-09-14T01:47:04.023Z,90.94
2018-09-14T01:49:33.867Z,91.14
2018-09-14T01:52:02.296Z,91.44
2018-09-14T01:54:36.624Z,91.48
2018-09-14T01:57:05.255Z,90.52
2018-09-14T01:59:33.686Z,91.47
2018-09-14T02:02:02.234Z,91.47
2018-09-14T02:04:30.790Z,91.46
2018-09-14T02:06:59.309Z,91.08
2018-09-14T02:09:27.754Z,91.45
2018-09-14T02:11:56.305Z,91.46
2018-09-14T02:14:24.981Z,91.25
2018-09-14T02:16:58.066Z,91.41
2018-09-14T02:19:26.745Z,91.60
2018-09-14T02:21:55.319Z,91.98
2018-09-14T02:24:23.912Z,91.42
2018-09-14T02:26:52.488Z,91.08
2018-09-14T02:29:21.689Z,91.09
2018-09-14T02:31:50.282Z,90.71
2018-09-14T02:34:18.872Z,91.36
2018-09-14T02:36:47.470Z,91.50
2018-09-14T02:39:16.015Z,92.02
2018-09-14T02:41:44.839Z,92.32
2018-09-14T02:44:13.499Z,92.25
2018-09-14T02:46:42.069Z,91.87
2018-09-14T02:49:10.752Z,92.12
2018-09-14T02:51:39.368Z,92.08
2018-09-14T02:54:08.677Z,92.15
2018-09-14T02:56:37.306Z,91.47
2018-09-14T02:59:06.054Z,91.17
2018-09-14T03:01:34.622Z,91.86
2018-09-14T03:04:03.214Z,91.86
2018-09-14T03:06:32.425Z,91.84
2018-09-14T03:09:01.158Z,90.96
2018-09-14T03:11:29.785Z,91.17
2018-09-14T03:13:58.424Z,91.93
2018-09-14T03:16:27.062Z,91.34
2018-09-14T03:18:55.658Z,91.82
2018-09-14T03:21:24.317Z,92.32
2018-09-14T03:23:54.095Z,92.44
2018-09-14T03:26:22.661Z,92.14
2018-09-14T03:28:51.307Z,92.56
2018-09-14T03:31:22.044Z,92.00
2018-09-14T03:33:50.637Z,91.59
2018-09-14T03:36:19.168Z,92.14
2018-09-14T03:38:47.781Z,91.68
2018-09-14T03:41:16.376Z,92.29
2018-09-14T03:43:45.075Z,92.48
2018-09-14T03:46:13.725Z,92.48
2018-09-14T03:49:14.097Z,92.97
2018-09-14T03:51:42.752Z,92.88
2018-09-14T03:54:11.280Z,92.30
2018-09-14T03:56:39.926Z,92.65
2018-09-14T03:59:08.457Z,92.87
2018-09-14T04:01:37.117Z,92.09
2018-09-14T04:04:05.683Z,92.59
2018-09-14T04:06:34.578Z,92.65
2018-09-14T04:09:03.508Z,93.15
2018-09-14T04:11:32.064Z,93.35
2018-09-14T04:14:00.653Z,93.46
2018-09-14T04:16:29.220Z,93.23
2018-09-14T04:19:01.004Z,93.05
2018-09-14T04:21:30.386Z,92.83
2018-09-14T04:23:59.082Z,92.11
2018-09-14T04:26:28.532Z,93.19
2018-09-14T04:28:57.618Z,93.64
2018-09-14T04:31:26.238Z,93.61
2018-09-14T04:34:02.730Z,93.58
2018-09-14T04:36:31.412Z,93.65
2018-09-14T04:39:00.000Z,92.90
2018-09-14T04:41:28.594Z,92.99
2018-09-14T04:43:57.173Z,92.93
2018-09-14T04:46:25.907Z,93.04
2018-09-14T04:48:54.575Z,92.99
2018-09-14T04:51:23.286Z,93.38
2018-09-14T04:53:51.908Z,92.86
2018-09-14T04:56:20.463Z,92.75
2018-09-14T04:58:49.347Z,93.09
2018-09-14T05:01:17.976Z,93.06
2018-09-14T05:03:46.557Z,93.04
2018-09-14T05:06:15.260Z,92.55
2018-09-14T05:08:44.013Z,92.74
2018-09-14T05:11:12.572Z,92.59
2018-09-14T05:13:41.921Z,93.41
2018-09-14T05:16:10.552Z,93.50
2018-09-14T05:18:39.259Z,92.37
2018-09-14T05:21:07.910Z,93.07
2018-09-14T05:23:37.060Z,93.47
2018-09-14T05:26:05.640Z,92.93
2018-09-14T05:28:34.338Z,93.28
2018-09-14T05:31:02.930Z,93.03
2018-09-14T05:33:31.793Z,93.46
2018-09-14T05:36:01.035Z,93.45
2018-09-14T05:38:29.753Z,93.31
2018-09-14T05:40:58.386Z,93.32
2018-09-14T05:43:26.984Z,93.62
2018-09-14T05:45:55.782Z,93.04
2018-09-14T05:48:24.551Z,93.51
2018-09-14T05:50:53.982Z,93.75
2018-09-14T05:53:22.698Z,93.88
2018-09-14T05:55:51.345Z,94.54
2018-09-14T05:58:20.118Z,94.25
2018-09-14T06:01:14.945Z,94.50
2018-09-14T06:03:43.557Z,94.25
2018-09-14T06:06:12.197Z,94.16
2018-09-14T06:08:40.760Z,94.23
2018-09-14T06:11:10.006Z,94.51
2018-09-14T06:13:39.652Z,94.45
2018-09-14T06:16:08.252Z,94.62
2018-09-14T06:18:42.502Z,94.80
2018-09-14T06:21:11.165Z,94.77
2018-09-14T06:23:39.799Z,94.57
2018-09-14T06:26:08.373Z,94.61
2018-09-14T06:28:37.063Z,94.66
2018-09-14T06:31:05.874Z,94.79
2018-09-14T06:33:34.810Z,95.10
2018-09-14T06:36:03.415Z,95.03
2018-09-14T06:38:32.091Z,95.34
2018-09-14T06:41:00.755Z,94.94
2018-09-14T06:43:29.313Z,95.45
2018-09-14T06:45:57.933Z,95.06
2018-09-14T06:48:27.495Z,95.20
2018-09-14T06:50:56.055Z,95.55
2018-09-14T06:53:26.982Z,95.63
2018-09-14T06:55:55.569Z,95.20
2018-09-14T06:58:24.457Z,95.43
2018-09-14T07:00:53.137Z,95.29
2018-09-14T07:03:21.741Z,95.18
2018-09-14T07:05:50.331Z,95.17
2018-09-14T07:08:19.035Z,95.09
2018-09-14T07:10:47.666Z,95.01
2018-09-14T07:13:16.315Z,94.60
2018-09-14T07:15:44.961Z,94.75
2018-09-14T07:18:13.634Z,94.47
2018-09-14T07:20:42.327Z,94.86
2018-09-14T07:23:12.221Z,94.19
2018-09-14T07:25:40.796Z,93.75
2018-09-14T07:28:10.029Z,93.60
2018-09-14T07:30:38.700Z,93.27
2018-09-14T07:33:07.542Z,93.27
2018-09-14T07:35:36.327Z,93.17
2018-09-14T07:38:05.016Z,92.80
2018-09-14T07:40:33.681Z,91.92
2018-09-14T07:43:02.333Z,91.61
2018-09-14T07:45:31.035Z,91.41
2018-09-14T07:47:59.716Z,91.15
2018-09-14T07:50:28.972Z,90.34
2018-09-14T07:52:57.697Z,90.05
2018-09-14T07:55:26.298Z,89.44
2018-09-14T07:57:54.983Z,88.93
2018-09-14T08:00:23.567Z,87.56
2018-09-14T08:02:52.255Z,87.18
2018-09-14T08:05:20.904Z,87.10
2018-09-14T08:07:49.709Z,86.64
2018-09-14T08:10:19.129Z,86.11
2018-09-14T08:12:47.807Z,85.90
2018-09-14T08:15:16.393Z,84.89
2018-09-14T08:17:45.276Z,84.06
2018-09-14T08:20:13.996Z,83.51
2018-09-14T08:23:08.328Z,82.85
2018-09-14T08:25:36.905Z,82.21
2018-09-14T08:28:05.573Z,81.62
2018-09-14T08:30:34.169Z,81.11
2018-09-14T08:33:02.793Z,80.92
2018-09-14T08:35:31.376Z,80.11
2018-09-14T08:37:59.978Z,80.26
2018-09-14T08:40:28.686Z,79.51
2018-09-14T08:42:57.439Z,78.87
2018-09-14T08:45:26.034Z,77.66
2018-09-14T08:47:54.731Z,76.53
2018-09-14T08:50:36.856Z,76.52
2018-09-14T08:53:05.477Z,75.59
2018-09-14T08:56:13.736Z,75.35
2018-09-14T08:58:42.294Z,74.35
2018-09-14T09:01:10.932Z,73.69
2018-09-14T09:03:39.534Z,73.12
2018-09-14T09:06:08.681Z,72.88
2018-09-14T09:08:37.405Z,73.23
2018-09-14T09:11:06.077Z,73.28
2018-09-14T09:13:34.675Z,72.99
2018-09-14T09:16:03.275Z,72.69
2018-09-14T09:18:31.894Z,72.19
2018-09-14T09:21:00.561Z,72.20
2018-09-14T09:23:29.288Z,71.64
2018-09-14T09:25:58.053Z,71.07
2018-09-14T09:28:26.627Z,70.78
2018-09-14T09:30:56.090Z,70.21
2018-09-14T09:33:24.713Z,70.06
2018-09-14T09:35:53.490Z,69.38
2018-09-14T09:38:22.148Z,68.21
2018-09-14T09:40:50.794Z,67.89
2018-09-14T09:43:19.533Z,67.02
2018-09-14T09:45:48.169Z,66.60
2018-09-14T09:48:16.893Z,65.19
2018-09-14T09:50:45.519Z,64.03
2018-09-14T09:53:14.081Z,63.88
2018-09-14T09:55:42.754Z,63.56
2018-09-14T09:58:11.352Z,63.63
2018-09-14T10:00:47.037Z,62.74
2018-09-14T10:03:16.435Z,62.14
2018-09-14T10:05:50.423Z,62.25
2018-09-14T10:08:19.045Z,61.56
2018-09-14T10:10:47.738Z,61.18
2018-09-14T10:13:16.413Z,60.25
2018-09-14T10:15:45.027Z,59.68
2018-09-14T10:18:13.777Z,58.62
2018-09-14T10:20:43.100Z,59.31
2018-09-14T10:23:11.783Z,58.67
2018-09-14T10:25:45.828Z,58.74
2018-09-14T10:31:37.746Z,56.37
2018-09-14T10:34:06.844Z,55.20
2018-09-14T10:36:35.433Z,54.24
2018-09-14T10:39:08.449Z,53.56
2018-09-14T10:41:37.198Z,52.76
2018-09-14T10:44:05.793Z,52.66
2018-09-14T10:46:34.473Z,52.32
2018-09-14T10:49:03.188Z,51.08
2018-09-14T10:51:32.063Z,50.74
2018-09-14T10:54:00.636Z,50.42
2018-09-14T10:56:29.313Z,49.32
2018-09-14T10:59:06.309Z,48.85
2018-09-14T11:01:34.915Z,49.55
2018-09-14T11:04:03.503Z,49.06
2018-09-14T11:06:32.297Z,48.50
2018-09-14T11:09:01.044Z,47.07
2018-09-14T11:11:29.635Z,46.54
2018-09-14T11:13:58.418Z,46.95
2018-09-14T11:16:27.098Z,46.12
2018-09-14T11:18:55.700Z,46.53
2018-09-14T11:21:24.281Z,46.72
2018-09-14T11:23:52.856Z,46.64
2018-09-14T11:26:21.547Z,46.28
2018-09-14T11:28:50.130Z,46.58
2018-09-14T11:31:20.917Z,46.35
2018-09-14T11:33:49.640Z,46.26
2018-09-14T11:36:18.544Z,44.83
2018-09-14T11:38:47.514Z,44.43
2018-09-14T11:41:16.119Z,43.54
2018-09-14T11:43:44.845Z,43.23
2018-09-14T11:46:13.752Z,41.95
2018-09-14T11:48:42.425Z,41.16
2018-09-14T11:51:11.111Z,39.59
2018-09-14T11:53:40.465Z,39.68
2018-09-14T11:56:09.202Z,40.01
2018-09-14T11:58:37.886Z,40.12
2018-09-14T12:01:07.365Z,40.07
2018-09-14T12:03:36.076Z,39.87
2018-09-14T12:06:04.724Z,39.88
2018-09-14T12:08:33.290Z,38.58
2018-09-14T12:11:02.328Z,38.85
2018-09-14T12:13:31.090Z,39.63
2018-09-14T12:15:59.727Z,38.00
2018-09-14T12:18:28.443Z,37.95
2018-09-14T12:20:57.182Z,37.53
2018-09-14T12:23:25.854Z,37.17
2018-09-14T12:25:54.862Z,37.32
2018-09-14T12:28:23.539Z,37.20
2018-09-14T12:30:52.196Z,36.53
2018-09-14T12:33:20.859Z,36.15
2018-09-14T12:35:49.469Z,35.83
2018-09-14T12:38:18.349Z,36.53
2018-09-14T12:40:46.925Z,36.64
2018-09-14T12:43:16.196Z,36.66
2018-09-14T12:45:44.850Z,36.62
2018-09-14T12:48:13.426Z,36.97
2018-09-14T12:50:42.204Z,36.30
2018-09-14T12:53:10.890Z,35.81
2018-09-14T12:55:39.566Z,35.13
2018-09-14T12:58:18.133Z,35.56
2018-09-14T13:00:50.051Z,35.99
2018-09-14T13:03:18.655Z,35.88
2018-09-14T13:05:47.221Z,35.01
2018-09-14T13:08:16.008Z,35.42
2018-09-14T13:10:44.594Z,34.09
2018-09-14T13:13:13.334Z,33.40
2018-09-14T13:15:41.997Z,33.89
2018-09-14T13:18:10.960Z,33.71
2018-09-14T13:20:39.650Z,35.79
2018-09-14T13:23:08.219Z,34.83
2018-09-14T13:25:36.932Z,33.78
2018-09-14T13:28:05.686Z,33.86
2018-09-14T13:30:34.590Z,33.22
2018-09-14T13:33:03.197Z,33.32
2018-09-14T13:35:31.754Z,32.31
2018-09-14T13:38:00.328Z,32.06
2018-09-14T13:40:29.135Z,32.53
2018-09-14T13:42:57.842Z,31.94
2018-09-14T13:45:27.454Z,32.59
2018-09-14T13:47:56.824Z,33.50
2018-09-14T13:50:26.183Z,34.43
2018-09-14T13:53:03.258Z,35.01
2018-09-14T13:55:39.997Z,34.28
2018-09-14T13:58:08.619Z,33.64
2018-09-14T14:00:37.304Z,32.81
2018-09-14T14:03:06.563Z,33.39
2018-09-14T14:05:35.248Z,33.38
2018-09-14T14:08:03.932Z,33.60
2018-09-14T14:10:33.401Z,33.57
2018-09-14T14:13:13.183Z,33.26
2018-09-14T14:15:41.742Z,33.78
2018-09-14T14:18:11.169Z,33.86
2018-09-14T14:20:40.200Z,33.78
2018-09-14T14:23:08.999Z,33.01
2018-09-14T14:25:40.124Z,32.78
2018-09-14T14:28:10.049Z,33.27
2018-09-14T14:30:38.982Z,34.32
2018-09-14T14:33:08.292Z,34.54
2018-09-14T14:35:36.953Z,35.28
2018-09-14T14:38:06.189Z,35.33
2018-09-14T14:40:34.816Z,34.49
2018-09-14T14:43:03.591Z,34.48
2018-09-14T14:45:32.290Z,35.05
2018-09-14T14:48:00.897Z,34.57
2018-09-14T14:50:29.525Z,35.13
2018-09-14T14:52:58.326Z,34.60
2018-09-14T14:55:27.000Z,35.76
2018-09-14T14:57:55.731Z,36.78
2018-09-14T15:00:24.326Z,37.00
2018-09-14T15:02:53.071Z,36.63
2018-09-14T15:05:21.783Z,36.73
2018-09-14T15:07:50.557Z,37.62
2018-09-14T15:10:19.262Z,37.50
2018-09-14T15:12:47.890Z,38.12
2018-09-14T15:15:16.591Z,38.19
2018-09-14T15:17:45.279Z,38.75
2018-09-14T15:20:13.944Z,39.15
2018-09-14T15:22:42.596Z,38.95
2018-09-14T15:25:11.241Z,38.45
2018-09-14T15:27:39.850Z,37.80
2018-09-14T15:30:08.505Z,38.05
2018-09-14T15:32:37.118Z,38.00
2018-09-14T15:35:05.918Z,37.84
2018-09-14T15:37:34.652Z,37.59
2018-09-14T15:40:03.255Z,37.99
2018-09-14T15:42:31.936Z,37.81
2018-09-14T15:45:00.811Z,38.45
2018-09-14T15:47:29.400Z,38.51
2018-09-14T15:49:58.040Z,39.09
2018-09-14T15:52:26.669Z,40.36
2018-09-14T15:54:55.486Z,40.55
2018-09-14T15:57:24.115Z,41.07
2018-09-14T15:59:52.660Z,41.28
2018-09-14T16:02:21.331Z,41.13
2018-09-14T16:04:49.958Z,41.37
2018-09-14T16:07:18.581Z,42.22
2018-09-14T16:09:47.281Z,41.79
2018-09-14T16:12:15.955Z,42.82
2018-09-14T16:14:44.659Z,42.98
2018-09-14T16:17:13.217Z,43.44
2018-09-14T16:19:42.032Z,43.95
2018-09-14T16:22:10.646Z,44.05
2018-09-14T16:24:39.281Z,44.19
2018-09-14T16:27:08.241Z,44.45
2018-09-14T16:29:36.895Z,43.90
2018-09-14T16:32:05.497Z,43.86
2018-09-14T16:34:34.132Z,43.52
2018-09-14T16:37:02.921Z,43.74
2018-09-14T16:42:57.014Z,44.44
2018-09-14T16:45:25.583Z,44.27
2018-09-14T16:47:54.234Z,43.97
2018-09-14T16:50:22.933Z,44.43
2018-09-14T16:52:51.584Z,44.88
2018-09-14T16:55:20.282Z,45.18
2018-09-14T16:57:48.905Z,45.57
2018-09-14T17:00:17.653Z,46.32
2018-09-14T17:02:46.472Z,46.50
2018-09-14T17:05:15.179Z,46.76
2018-09-14T17:07:43.855Z,47.42
2018-09-14T17:10:12.547Z,47.51
2018-09-14T17:12:41.192Z,48.37
2018-09-14T17:15:09.870Z,48.94
2018-09-14T17:17:39.091Z,49.96
2018-09-14T17:20:09.977Z,49.59
2018-09-14T17:22:38.732Z,50.01
2018-09-14T17:25:21.661Z,50.49
2018-09-14T17:27:51.527Z,50.76
2018-09-14T17:30:20.365Z,51.17
2018-09-14T17:32:49.042Z,51.06
2018-09-14T17:35:18.369Z,51.45
2018-09-14T17:37:48.623Z,51.44
2018-09-14T17:40:17.492Z,52.18
2018-09-14T17:42:46.232Z,52.00
2018-09-14T17:45:14.894Z,52.41
2018-09-14T17:47:43.595Z,52.31
2018-09-14T17:50:12.282Z,53.40
2018-09-14T17:52:40.955Z,53.88
2018-09-14T17:55:09.617Z,53.36
2018-09-14T17:57:38.261Z,53.29
2018-09-14T18:00:07.305Z,53.06
2018-09-14T18:02:35.905Z,52.87
2018-09-14T18:05:04.632Z,53.83
2018-09-14T18:07:33.417Z,53.96
2018-09-14T18:10:02.285Z,53.82
2018-09-14T18:13:00.389Z,53.49
2018-09-14T18:15:29.042Z,53.99
2018-09-14T18:17:57.715Z,54.14
2018-09-14T18:20:26.339Z,53.76
2018-09-14T18:22:54.974Z,53.88
2018-09-14T18:25:23.627Z,54.11
2018-09-14T18:27:52.348Z,54.35
2018-09-14T18:33:45.556Z,55.09
2018-09-14T18:36:14.424Z,55.14
2018-09-14T18:38:43.162Z,55.92
2018-09-14T18:41:11.894Z,56.00
2018-09-14T18:43:40.527Z,55.68
2018-09-14T18:46:10.166Z,56.10
2018-09-14T18:48:38.789Z,56.09
2018-09-14T18:51:07.517Z,56.41
2018-09-14T18:53:37.174Z,56.81
2018-09-14T18:56:05.754Z,57.30
2018-09-14T18:58:34.387Z,57.10
2018-09-14T19:01:03.361Z,57.55
2018-09-14T19:03:32.040Z,57.32
2018-09-14T19:06:00.671Z,57.68
2018-09-14T19:08:29.510Z,58.37
2018-09-14T19:10:58.222Z,58.08
2018-09-14T19:13:26.899Z,58.46
2018-09-14T19:15:55.573Z,58.91
2018-09-14T19:18:24.173Z,59.13
2018-09-14T19:20:52.999Z,59.69
2018-09-14T19:23:21.629Z,60.36
2018-09-14T19:25:50.334Z,61.06
2018-09-14T19:28:19.715Z,60.99
2018-09-14T19:30:48.439Z,61.19
2018-09-14T19:33:17.086Z,61.90
2018-09-14T19:35:45.801Z,61.58
2018-09-14T19:38:14.709Z,62.04
2018-09-14T19:40:43.566Z,62.40
2018-09-14T19:43:12.426Z,62.77
2018-09-14T19:45:41.441Z,62.58
2018-09-14T19:48:10.353Z,62.71
2018-09-14T19:50:39.064Z,62.82
2018-09-14T19:53:34.471Z,62.49
2018-09-14T19:56:03.163Z,62.37
2018-09-14T19:58:31.853Z,62.83
2018-09-14T20:01:00.934Z,63.27
2018-09-14T20:03:29.889Z,63.51
2018-09-14T20:05:59.039Z,63.53
2018-09-14T20:08:29.113Z,63.08
2018-09-14T20:10:57.893Z,63.33
2018-09-14T20:13:26.610Z,63.09
2018-09-14T20:15:55.335Z,62.94
2018-09-14T20:18:24.202Z,62.98
2018-09-14T20:20:53.817Z,62.94
2018-09-14T20:23:26.469Z,62.55
2018-09-14T20:25:55.291Z,62.52
2018-09-14T20:28:23.925Z,62.46
2018-09-14T20:30:52.729Z,61.90
2018-09-14T20:33:21.564Z,61.44
2018-09-14T20:35:50.403Z,61.28
2018-09-14T20:38:19.130Z,61.51
2018-09-14T20:40:47.796Z,61.65
2018-09-14T20:43:16.460Z,61.25
2018-09-14T20:45:45.174Z,61.29
2018-09-14T20:48:13.934Z,61.38
2018-09-14T20:50:42.616Z,61.69
2018-09-14T20:53:11.497Z,61.70
2018-09-14T20:55:40.227Z,62.00
2018-09-14T20:58:11.612Z,62.00
2018-09-14T21:00:41.017Z,62.05
2018-09-14T21:03:09.813Z,62.60
2018-09-14T21:05:38.580Z,62.26
2018-09-14T21:08:07.376Z,62.53
2018-09-14T21:10:36.117Z,62.49
2018-09-14T21:13:04.968Z,62.87
2018-09-14T21:15:33.602Z,62.92
2018-09-14T21:18:02.197Z,63.11
2018-09-14T21:20:30.999Z,63.02
2018-09-14T21:22:59.653Z,63.45
2018-09-14T21:25:28.344Z,63.06
2018-09-14T21:27:57.077Z,63.42
2018-09-14T21:30:25.830Z,63.79
2018-09-14T21:32:54.527Z,63.69
2018-09-14T21:35:23.748Z,63.77
2018-09-14T21:37:52.536Z,64.17
2018-09-14T21:40:21.251Z,63.72
2018-09-14T21:42:49.831Z,64.30
2018-09-14T21:45:19.161Z,64.58
2018-09-14T21:47:47.862Z,64.78
2018-09-14T21:50:17.449Z,65.17
2018-09-14T21:52:46.335Z,65.07
2018-09-14T21:55:15.090Z,65.08
2018-09-14T21:57:43.784Z,65.33
2018-09-14T22:00:17.966Z,65.25
2018-09-14T22:02:46.618Z,65.83
2018-09-14T22:05:15.315Z,65.90
2018-09-14T22:07:43.980Z,65.77
2018-09-14T22:10:12.906Z,65.96
2018-09-14T22:12:41.586Z,66.13
2018-09-14T22:15:10.263Z,66.25
2018-09-14T22:17:39.765Z,65.99
2018-09-14T22:20:08.503Z,66.15
2018-09-14T22:22:37.277Z,65.87
2018-09-14T22:25:06.171Z,66.50
2018-09-14T22:27:34.792Z,66.46
2018-09-14T22:30:03.425Z,66.63
2018-09-14T22:32:32.074Z,67.14
2018-09-14T22:35:00.661Z,67.50
2018-09-14T22:37:29.349Z,67.76
2018-09-14T22:39:58.018Z,68.10
2018-09-14T22:42:27.795Z,68.20
2018-09-14T22:44:56.433Z,68.46
2018-09-14T22:47:25.015Z,68.81
2018-09-14T22:49:54.063Z,69.87
2018-09-14T22:52:22.726Z,70.49
2018-09-14T22:54:51.403Z,70.69
2018-09-14T22:57:20.078Z,70.97
2018-09-14T22:59:48.755Z,71.06
2018-09-14T23:02:17.333Z,71.44
2018-09-14T23:04:45.971Z,72.67
2018-09-14T23:07:14.525Z,73.23
2018-09-14T23:10:31.035Z,73.46
2018-09-14T23:12:59.687Z,73.74
2018-09-14T23:15:28.261Z,74.25
2018-09-14T23:17:56.898Z,75.39
2018-09-14T23:20:25.515Z,75.23
2018-09-14T23:22:54.169Z,75.20
2018-09-14T23:25:22.732Z,75.00
2018-09-14T23:27:52.446Z,75.11
2018-09-14T23:30:21.234Z,74.49
2018-09-14T23:32:50.684Z,74.23
2018-09-14T23:35:19.865Z,73.84
2018-09-14T23:37:48.412Z,73.97
2018-09-14T23:40:17.001Z,73.47
2018-09-14T23:42:45.584Z,72.90
2018-09-14T23:45:14.316Z,72.95
2018-09-14T23:47:42.940Z,73.33
2018-09-14T23:50:11.620Z,72.80
2018-09-14T23:52:40.285Z,73.25
2018-09-14T23:55:09.023Z,73.50
2018-09-14T23:57:37.589Z,73.74
